Time;durP1;ratioP1;P1;durP2;ratioP2;P2;SDS_P1;SDS_P2;PMS_P1;PMS_P2;Temp;Humidity;BMP_temperature;BMP_pressure;BME280_temperature;BME280_humidity;BME280_pressure;Samples;Min_cycle;Max_cycle;Signal;HPM_P1;HPM_P2
2022/03/19 00:01:57;;;;;;;10.27;5.25;;;0.90;85.30;0.30;100964.00;;;;4894999;28;86495;-57
2022/03/19 00:04:23;;;;;;;10.18;5.47;;;0.90;85.70;0.30;100962.00;;;;4890637;28;88315;-56
2022/03/19 00:06:49;;;;;;;9.70;5.30;;;0.90;85.70;0.30;100956.00;;;;4896691;28;87300;-55
2022/03/19 00:09:16;;;;;;;8.32;5.30;;;0.90;85.70;0.30;100952.00;;;;4883951;28;88788;-58
2022/03/19 00:11:43;;;;;;;9.05;5.50;;;0.90;85.70;0.30;100955.00;;;;4882750;28;87594;-53
2022/03/19 00:14:12;;;;;;;10.05;5.05;;;0.90;85.80;0.20;100948.00;;;;4892461;28;87202;-57
2022/03/19 00:16:39;;;;;;;11.98;5.25;;;0.80;86.00;0.20;100953.00;;;;4893425;28;88392;-57
2022/03/19 00:19:08;;;;;;;10.13;5.00;;;0.80;86.00;0.20;100940.00;;;;4888422;28;87169;-56
2022/03/19 00:21:36;;;;;;;9.38;5.65;;;0.80;86.20;0.20;100942.00;;;;4885231;28;87390;-58
2022/03/19 00:24:04;;;;;;;10.05;5.53;;;0.80;86.50;0.10;100945.00;;;;4882709;28;87521;-55
2022/03/19 00:26:31;;;;;;;10.60;5.30;;;0.80;86.50;0.10;100938.00;;;;4885601;28;88396;-57
2022/03/19 00:28:57;;;;;;;8.35;5.07;;;0.80;86.60;0.20;100943.00;;;;4895598;28;87449;-56
2022/03/19 00:31:23;;;;;;;11.02;5.05;;;0.80;86.10;0.10;100937.00;;;;4884922;28;87470;-55
2022/03/19 00:33:50;;;;;;;10.27;5.10;;;0.80;86.10;0.20;100941.00;;;;4885347;28;89151;-55
2022/03/19 00:36:16;;;;;;;8.43;5.10;;;0.80;86.30;0.20;100931.00;;;;4900850;28;88377;-57
2022/03/19 00:38:42;;;;;;;11.48;5.30;;;0.80;86.50;0.10;100919.00;;;;4901496;28;87053;-57
2022/03/19 00:41:08;;;;;;;8.05;4.80;;;0.70;86.80;0.10;100942.00;;;;4889161;28;86975;-57
2022/03/19 00:43:36;;;;;;;9.20;4.93;;;0.70;87.30;0.10;100939.00;;;;4885297;28;88751;-57
2022/03/19 00:46:02;;;;;;;10.00;4.82;;;0.70;87.40;0.00;100943.00;;;;4890548;28;87015;-57
2022/03/19 00:48:29;;;;;;;9.82;5.38;;;0.60;87.50;-0.10;100937.00;;;;4891522;28;87918;-56
2022/03/19 00:50:55;;;;;;;9.45;5.03;;;0.50;87.60;-0.20;100944.00;;;;4896768;28;86240;-58
2022/03/19 00:53:21;;;;;;;8.10;5.10;;;0.40;88.00;-0.20;100941.00;;;;4902448;28;88131;-56
2022/03/19 00:55:49;;;;;;;8.02;4.95;;;0.50;88.30;-0.20;100947.00;;;;4894404;28;88134;-56
2022/03/19 00:58:15;;;;;;;14.02;5.78;;;0.50;88.00;-0.20;100944.00;;;;4888850;28;88224;-57
2022/03/19 01:00:41;;;;;;;8.80;5.32;;;0.40;88.40;-0.20;100945.00;;;;4888554;28;87535;-55
2022/03/19 01:03:07;;;;;;;12.18;5.28;;;0.40;88.30;-0.20;100935.00;;;;4887410;28;88631;-57
2022/03/19 01:05:34;;;;;;;10.05;5.38;;;0.50;88.00;-0.20;100940.00;;;;4901682;28;87469;-57
2022/03/19 01:08:00;;;;;;;11.55;5.03;;;0.50;88.00;-0.10;100940.00;;;;4905562;28;87002;-56
2022/03/19 01:10:29;;;;;;;10.88;5.75;;;0.50;88.10;-0.20;100930.00;;;;4905344;28;86918;-55
2022/03/19 01:12:57;;;;;;;11.73;5.78;;;0.40;88.20;-0.30;100945.00;;;;4900001;28;88759;-56
2022/03/19 01:15:25;;;;;;;9.85;5.75;;;0.40;88.70;-0.30;100952.00;;;;4899332;28;87167;-57
2022/03/19 01:17:51;;;;;;;10.40;5.72;;;0.30;88.70;-0.40;100950.00;;;;4896232;28;87494;-55
2022/03/19 01:20:18;;;;;;;8.55;5.13;;;0.20;88.80;-0.40;100953.00;;;;4869612;28;87366;-57
2022/03/19 01:22:46;;;;;;;10.50;5.88;;;0.20;89.20;-0.40;100949.00;;;;4887872;28;88686;-55
2022/03/19 01:25:15;;;;;;;9.43;5.97;;;0.20;90.10;-0.50;100955.00;;;;4894984;28;89477;-56
2022/03/19 01:27:44;;;;;;;10.20;5.43;;;0.20;89.50;-0.40;100945.00;;;;4902411;28;86988;-55
2022/03/19 01:30:12;;;;;;;13.73;5.85;;;0.20;89.30;-0.30;100962.00;;;;4895066;28;87388;-55
2022/03/19 01:32:39;;;;;;;9.30;5.70;;;0.30;88.70;-0.30;100961.00;;;;4896241;28;87655;-58
2022/03/19 01:35:08;;;;;;;9.50;5.10;;;0.30;88.80;-0.40;100949.00;;;;4895490;28;87552;-57
2022/03/19 01:37:35;;;;;;;11.88;5.78;;;0.30;89.50;-0.40;100954.00;;;;4898538;28;87314;-57
2022/03/19 01:40:01;;;;;;;9.90;5.47;;;0.20;89.40;-0.50;100950.00;;;;4897458;28;86377;-57
2022/03/19 01:42:30;;;;;;;13.63;5.47;;;0.10;89.70;-0.40;100950.00;;;;4904421;28;87607;-56
2022/03/19 01:44:59;;;;;;;11.55;5.88;;;0.30;89.60;-0.40;100957.00;;;;4890953;28;88079;-57
2022/03/19 01:47:30;;;;;;;10.60;5.75;;;0.30;89.70;-0.40;100956.00;;;;4889696;28;87860;-58
2022/03/19 01:49:57;;;;;;;7.80;5.30;;;0.30;89.50;-0.30;100968.00;;;;4891198;28;87143;-57
2022/03/19 01:52:26;;;;;;;13.25;5.70;;;0.30;89.40;-0.30;100962.00;;;;4889443;28;88578;-55
2022/03/19 01:54:54;;;;;;;13.73;6.30;;;0.30;89.30;-0.40;100963.00;;;;4897034;28;87819;-55
2022/03/19 01:57:25;;;;;;;8.95;5.68;;;0.30;89.40;-0.40;100970.00;;;;4894188;28;87432;-57
2022/03/19 01:59:52;;;;;;;9.88;5.60;;;0.30;89.40;-0.40;100962.00;;;;4886358;28;86984;-58
2022/03/19 02:02:19;;;;;;;12.80;5.63;;;0.30;89.60;-0.40;100968.00;;;;4901370;28;87272;-57
2022/03/19 02:04:46;;;;;;;10.25;5.65;;;0.20;89.70;-0.40;100962.00;;;;4893535;28;87387;-58
2022/03/19 02:07:13;;;;;;;11.25;6.18;;;0.20;89.80;-0.40;100969.00;;;;4902755;28;87008;-57
2022/03/19 02:09:40;;;;;;;10.90;5.53;;;0.20;89.70;-0.40;100978.00;;;;4904463;28;87340;-57
2022/03/19 02:12:07;;;;;;;8.85;5.30;;;0.20;89.70;-0.40;100977.00;;;;4901860;28;88534;-57
2022/03/19 02:14:39;;;;;;;8.32;5.40;;;0.30;90.00;-0.40;100976.00;;;;4893664;28;88181;-58
2022/03/19 02:17:06;;;;;;;11.82;5.90;;;0.30;90.00;-0.30;100974.00;;;;4897032;28;87107;-58
2022/03/19 02:19:33;;;;;;;8.32;5.53;;;0.30;89.60;-0.30;100982.00;;;;4896057;28;87032;-57
2022/03/19 02:22:00;;;;;;;10.93;5.80;;;0.40;89.40;-0.40;100982.00;;;;4882942;28;87980;-55
2022/03/19 02:27:15;;;;;;;9.32;5.75;;;0.20;90.00;-0.50;100982.00;;;;4885205;28;87316;-56
2022/03/19 02:29:42;;;;;;;9.35;5.45;;;0.10;90.30;-0.50;100981.00;;;;4894524;28;86879;-57
2022/03/19 02:32:08;;;;;;;10.02;5.60;;;0.10;89.80;-0.50;100979.00;;;;4885034;28;87609;-55
2022/03/19 02:34:34;;;;;;;10.27;5.38;;;0.10;89.70;-0.50;100985.00;;;;4890471;28;87365;-55
2022/03/19 02:37:02;;;;;;;10.95;6.22;;;0.20;89.70;-0.50;100983.00;;;;4902487;28;87946;-57
2022/03/19 02:39:32;;;;;;;12.18;6.22;;;0.10;89.80;-0.50;100983.00;;;;4884715;28;87114;-57
2022/03/19 02:42:05;;;;;;;11.63;6.00;;;0.20;89.80;-0.50;100971.00;;;;4886717;28;89872;-55
2022/03/19 02:44:33;;;;;;;12.57;5.32;;;0.20;89.70;-0.50;100981.00;;;;4894209;28;88170;-56
2022/03/19 02:47:04;;;;;;;11.80;5.90;;;0.10;89.60;-0.50;100977.00;;;;4895401;28;87615;-55
2022/03/19 02:49:30;;;;;;;10.68;6.10;;;0.10;89.50;-0.50;100984.00;;;;4894677;28;88041;-55
2022/03/19 02:51:57;;;;;;;15.98;5.50;;;0.10;89.80;-0.50;100983.00;;;;4888687;28;87516;-56
2022/03/19 02:54:27;;;;;;;10.93;5.13;;;0.20;89.60;-0.50;100973.00;;;;4892607;28;87286;-55
2022/03/19 02:56:55;;;;;;;10.23;5.40;;;0.10;89.40;-0.50;100971.00;;;;4892276;28;87245;-57
2022/03/19 02:59:30;;;;;;;10.57;5.43;;;0.20;89.20;-0.50;100985.00;;;;4895543;28;87256;-55
2022/03/19 03:02:04;;;;;;;7.47;5.43;;;0.20;88.60;-0.40;100982.00;;;;4898397;28;89724;-54
2022/03/19 03:04:32;;;;;;;9.68;4.85;;;0.20;88.60;-0.40;100984.00;;;;4879886;28;90605;-56
2022/03/19 03:07:03;;;;;;;9.95;5.32;;;0.30;88.70;-0.40;100977.00;;;;4900084;28;88736;-57
2022/03/19 03:09:32;;;;;;;11.03;5.43;;;0.30;88.70;-0.40;100969.00;;;;4903587;28;86973;-57
2022/03/19 03:12:01;;;;;;;10.35;5.63;;;0.30;88.60;-0.40;100976.00;;;;4900426;28;87411;-58
2022/03/19 03:14:28;;;;;;;10.07;5.03;;;0.30;88.70;-0.40;100973.00;;;;4892318;28;87559;-54
2022/03/19 03:17:00;;;;;;;8.32;4.70;;;0.20;88.60;-0.40;100981.00;;;;4898220;28;86964;-57
2022/03/19 03:19:26;;;;;;;;;;;0.20;88.60;-0.50;100967.00;;;;4895596;28;86653;-56
2022/03/19 03:21:52;;;;;;;8.82;5.00;;;0.10;88.60;-0.50;100966.00;;;;4897252;28;87687;-57
2022/03/19 03:24:18;;;;;;;9.48;5.40;;;0.10;89.00;-0.60;100969.00;;;;4890732;28;87237;-58
2022/03/19 03:26:45;;;;;;;9.05;5.03;;;0.00;89.30;-0.60;100960.00;;;;4900627;28;87943;-55
2022/03/19 03:29:11;;;;;;;10.32;5.65;;;0.10;89.40;-0.60;100971.00;;;;4892827;28;87215;-57
2022/03/19 03:31:37;;;;;;;11.05;6.18;;;0.00;89.30;-0.70;100963.00;;;;4901197;28;88613;-57
2022/03/19 03:34:04;;;;;;;8.15;5.20;;;-0.10;89.70;-0.80;100971.00;;;;4888433;28;87482;-58
2022/03/19 03:36:32;;;;;;;12.18;5.47;;;-0.10;90.00;-0.90;100984.00;;;;4902908;28;86961;-57
2022/03/19 03:38:58;;;;;;;8.40;5.10;;;-0.20;90.10;-0.80;100975.00;;;;4892320;28;87609;-56
2022/03/19 03:41:24;;;;;;;8.60;5.28;;;-0.20;90.00;-0.80;100974.00;;;;4897766;28;87440;-55
2022/03/19 03:43:51;;;;;;;12.13;5.45;;;-0.20;90.00;-0.80;100964.00;;;;4900895;28;87329;-57
2022/03/19 03:46:17;;;;;;;11.82;5.93;;;-0.10;90.00;-0.50;100968.00;;;;4902385;28;87054;-57
2022/03/19 03:48:43;;;;;;;9.20;5.85;;;-0.10;90.00;-0.30;100974.00;;;;4892465;28;87103;-56
2022/03/19 03:51:12;;;;;;;10.02;5.30;;;0.00;89.70;0.00;100974.00;;;;4890591;28;88556;-57
2022/03/19 03:53:38;;;;;;;11.25;5.55;;;0.20;88.70;0.20;100977.00;;;;4886566;28;88415;-56
2022/03/19 03:56:05;;;;;;;8.75;4.88;;;0.30;88.60;0.50;100982.00;;;;4895049;28;86999;-55
2022/03/19 03:58:32;;;;;;;9.00;5.22;;;0.50;87.70;0.70;100981.00;;;;4895828;28;87169;-56
2022/03/19 04:00:58;;;;;;;12.52;5.78;;;0.70;87.20;1.00;100978.00;;;;4871726;28;88021;-58
2022/03/19 04:03:25;;;;;;;7.45;5.13;;;0.80;86.50;1.20;100973.00;;;;4882832;28;87523;-55
2022/03/19 04:05:51;;;;;;;10.93;4.63;;;1.00;86.00;1.40;100989.00;;;;4893192;28;87557;-56
2022/03/19 04:08:17;;;;;;;9.90;5.32;;;1.10;85.40;1.50;100980.00;;;;4891204;28;86378;-57
2022/03/19 04:10:43;;;;;;;12.35;5.78;;;1.20;85.00;1.70;100989.00;;;;4894092;28;87749;-53
2022/03/19 04:13:11;;;;;;;10.48;4.82;;;1.30;84.40;1.90;100985.00;;;;4891456;28;87358;-54
2022/03/19 04:15:37;;;;;;;7.25;4.93;;;1.40;83.90;2.00;100986.00;;;;4895352;28;87929;-55
2022/03/19 04:18:03;;;;;;;9.55;5.00;;;1.50;83.50;2.30;100985.00;;;;4898133;28;87093;-56
2022/03/19 04:20:29;;;;;;;10.45;5.45;;;1.70;83.10;2.50;100985.00;;;;4895403;28;87725;-55
2022/03/19 04:22:56;;;;;;;9.85;4.97;;;1.90;82.40;2.70;100995.00;;;;4895220;28;87508;-56
2022/03/19 04:25:25;;;;;;;7.20;4.65;;;2.00;81.60;2.80;100985.00;;;;4878761;28;87022;-58
2022/03/19 04:27:54;;;;;;;7.88;4.68;;;2.10;80.60;2.90;101004.00;;;;4896029;28;87053;-56
2022/03/19 04:30:22;;;;;;;9.05;5.25;;;2.10;80.80;3.10;100994.00;;;;4860716;28;88665;-57
2022/03/19 04:33:00;;;;;;;10.65;4.50;;;2.30;79.90;3.40;100995.00;;;;4893744;28;87508;-57
2022/03/19 04:38:16;;;;;;;11.88;5.25;;;2.60;79.80;3.70;100993.00;;;;4895307;28;87070;-53
2022/03/19 04:40:44;;;;;;;8.27;5.13;;;2.60;79.10;3.80;100989.00;;;;4894951;28;88649;-57
2022/03/19 04:43:11;;;;;;;10.07;4.90;;;2.80;79.00;4.00;101010.00;;;;4894169;28;87070;-53
2022/03/19 04:45:39;;;;;;;10.52;5.13;;;2.90;78.40;3.90;101006.00;;;;4880488;28;87042;-55
2022/03/19 04:48:06;;;;;;;9.18;4.80;;;2.80;78.60;4.00;101006.00;;;;4895766;28;87139;-55
2022/03/19 04:50:40;;;;;;;9.60;4.90;;;2.90;78.30;4.20;101011.00;;;;4895288;28;88732;-58
2022/03/19 04:53:07;;;;;;;11.43;5.50;;;3.10;78.20;4.30;101013.00;;;;4899596;28;88227;-56
2022/03/19 04:55:35;;;;;;;15.27;5.72;;;3.10;78.00;4.10;101021.00;;;;4901179;28;87645;-58
2022/03/19 04:58:03;;;;;;;10.35;5.30;;;3.00;78.40;4.10;101015.00;;;;4896027;28;86228;-57
2022/03/19 05:00:30;;;;;;;14.00;6.03;;;2.90;78.60;4.20;101024.00;;;;4894201;28;87635;-57
2022/03/19 05:02:57;;;;;;;13.55;5.32;;;3.10;79.00;4.20;101026.00;;;;4869524;28;89267;-55
2022/03/19 05:05:24;;;;;;;14.68;6.13;;;3.10;78.70;4.00;101028.00;;;;4884395;28;88595;-56
2022/03/19 05:07:53;;;;;;;12.88;6.03;;;3.00;78.90;3.90;101034.00;;;;4893576;28;86987;-57
2022/03/19 05:13:07;;;;;;;16.70;6.50;;;2.90;79.70;3.40;101035.00;;;;4892565;28;87404;-55
2022/03/19 05:15:35;;;;;;;11.10;5.63;;;2.60;80.10;3.00;101034.00;;;;4893357;28;87457;-56
2022/03/19 05:18:02;;;;;;;10.20;5.38;;;2.50;80.90;2.40;101040.00;;;;4891227;28;86979;-56
2022/03/19 05:20:28;;;;;;;12.20;5.13;;;2.30;80.90;2.10;101049.00;;;;4894671;28;87942;-56
2022/03/19 05:22:55;;;;;;;12.60;5.88;;;2.20;81.10;1.90;101051.00;;;;4893088;28;88530;-56
2022/03/19 05:25:21;;;;;;;11.95;5.93;;;2.20;81.20;1.80;101049.00;;;;4895964;28;87077;-57
2022/03/19 05:27:49;;;;;;;11.13;5.18;;;2.20;81.70;1.70;101044.00;;;;4893332;28;87546;-57
2022/03/19 05:30:15;;;;;;;9.45;5.05;;;2.10;81.80;1.60;101044.00;;;;4893691;28;88385;-57
2022/03/19 05:32:42;;;;;;;8.77;4.60;;;2.10;81.90;1.60;101048.00;;;;4862696;28;91177;-56
2022/03/19 05:35:09;;;;;;;9.82;5.45;;;2.10;81.40;1.60;101048.00;;;;4876921;28;87325;-56
2022/03/19 05:37:35;;;;;;;10.18;4.70;;;2.10;81.70;1.60;101050.00;;;;4880671;28;88207;-57
2022/03/19 05:40:05;;;;;;;11.95;6.10;;;2.10;80.30;1.70;101046.00;;;;4894216;28;87882;-55
2022/03/19 05:42:32;;;;;;;9.73;5.30;;;2.20;81.50;1.70;101052.00;;;;4897442;28;88179;-56
2022/03/19 05:44:59;;;;;;;8.48;5.28;;;2.20;80.90;1.70;101051.00;;;;4882766;28;87103;-57
2022/03/19 05:47:25;;;;;;;9.32;6.00;;;2.20;80.70;1.80;101057.00;;;;4897058;28;86929;-56
2022/03/19 05:49:51;;;;;;;11.43;5.68;;;2.30;80.60;1.80;101052.00;;;;4884403;28;87516;-57
2022/03/19 05:52:17;;;;;;;10.13;5.80;;;2.30;80.90;1.80;101042.00;;;;4895980;28;87622;-55
2022/03/19 05:54:44;;;;;;;10.02;6.10;;;2.30;80.50;1.80;101045.00;;;;4894433;28;88112;-55
2022/03/19 05:57:10;;;;;;;13.65;5.80;;;2.30;80.90;1.90;101059.00;;;;4889689;28;87072;-56
2022/03/19 05:59:36;;;;;;;11.13;5.82;;;2.30;80.10;1.90;101057.00;;;;4896497;28;89032;-54
2022/03/19 06:02:05;;;;;;;9.48;5.50;;;2.40;80.00;2.00;101046.00;;;;4894397;28;88377;-55
2022/03/19 06:04:35;;;;;;;10.05;5.85;;;2.50;80.10;2.10;101057.00;;;;4892671;28;87069;-55
2022/03/19 06:07:02;;;;;;;11.20;5.22;;;2.50;80.10;2.10;101050.00;;;;4859966;28;87179;-57
2022/03/19 06:09:29;;;;;;;6.82;4.57;;;2.60;80.10;2.20;101055.00;;;;4893272;28;87603;-56
2022/03/19 06:11:55;;;;;;;8.73;5.45;;;2.60;78.80;2.20;101061.00;;;;4894509;28;87189;-54
2022/03/19 06:14:21;;;;;;;10.40;5.28;;;2.60;78.20;2.30;101053.00;;;;4892773;28;87391;-57
2022/03/19 06:16:52;;;;;;;8.80;5.32;;;2.80;79.10;2.40;101055.00;;;;4894023;28;87333;-57
2022/03/19 06:19:18;;;;;;;9.45;5.30;;;2.90;78.80;2.60;101061.00;;;;4885225;28;90223;-52
2022/03/19 06:21:45;;;;;;;9.35;5.85;;;3.00;78.30;2.60;101052.00;;;;4896160;28;89145;-57
2022/03/19 06:24:12;;;;;;;9.00;5.30;;;3.10;78.00;2.70;101063.00;;;;4894994;28;88122;-56
2022/03/19 06:26:38;;;;;;;8.32;5.07;;;3.30;77.80;2.80;101055.00;;;;4876691;28;87202;-56
2022/03/19 06:29:04;;;;;;;10.40;5.50;;;3.30;77.60;2.80;101053.00;;;;4892927;28;88519;-57
2022/03/19 06:31:34;;;;;;;9.50;5.50;;;3.30;77.30;2.90;101063.00;;;;4894660;28;88129;-55
2022/03/19 06:34:01;;;;;;;11.15;5.15;;;3.40;77.20;3.00;101056.00;;;;4884513;28;87022;-56
2022/03/19 06:39:13;;;;;;;6.93;4.55;;;3.50;76.80;3.10;101074.00;;;;4889940;28;87587;-57
2022/03/19 06:41:40;;;;;;;8.60;4.85;;;3.60;76.20;3.20;101065.00;;;;4892725;28;88541;-58
2022/03/19 06:44:06;;;;;;;10.80;5.00;;;3.60;75.60;3.30;101063.00;;;;4891441;28;87917;-57
2022/03/19 06:46:33;;;;;;;13.15;4.55;;;3.60;75.10;3.30;101081.00;;;;4892187;28;87073;-58
2022/03/19 06:48:59;;;;;;;7.63;4.70;;;3.70;74.80;3.40;101067.00;;;;4895102;28;88961;-57
2022/03/19 06:51:25;;;;;;;7.55;3.90;;;3.70;73.90;3.30;101071.00;;;;4892211;28;87057;-57
2022/03/19 06:53:51;;;;;;;8.57;4.25;;;3.70;73.60;3.40;101064.00;;;;4887328;28;87370;-56
2022/03/19 06:56:18;;;;;;;9.15;3.88;;;3.70;73.70;3.50;101074.00;;;;4882792;28;87218;-56
2022/03/19 06:58:46;;;;;;;9.25;3.78;;;3.80;72.80;3.50;101063.00;;;;4895960;28;87850;-54
2022/03/19 07:01:16;;;;;;;7.68;3.65;;;3.80;72.30;3.50;101064.00;;;;4888804;28;88436;-57
2022/03/19 07:03:44;;;;;;;12.13;3.80;;;3.80;71.40;3.50;101061.00;;;;4889838;28;87333;-58
2022/03/19 07:06:12;;;;;;;5.05;3.15;;;3.90;71.50;3.60;101054.00;;;;4899574;28;87064;-56
2022/03/19 07:08:38;;;;;;;9.38;4.55;;;3.90;70.30;3.70;101057.00;;;;4902446;28;89718;-55
2022/03/19 07:11:05;;;;;;;8.75;4.00;;;4.00;71.00;3.70;101071.00;;;;4896458;28;88073;-56
2022/03/19 07:13:31;;;;;;;6.93;4.13;;;4.10;71.00;3.80;101058.00;;;;4875061;28;87782;-56
2022/03/19 07:15:58;;;;;;;12.13;4.32;;;4.20;70.70;3.90;101066.00;;;;4885617;28;87015;-57
2022/03/19 07:18:24;;;;;;;7.53;3.85;;;4.30;71.20;3.90;101059.00;;;;4891694;28;87626;-57
2022/03/19 07:20:50;;;;;;;8.10;3.85;;;4.30;70.70;4.10;101065.00;;;;4890584;28;88314;-57
2022/03/19 07:23:17;;;;;;;9.73;4.13;;;4.40;70.90;4.10;101066.00;;;;4894051;28;87373;-57
2022/03/19 07:25:43;;;;;;;9.57;3.85;;;4.40;70.90;4.10;101065.00;;;;4894031;28;86652;-55
2022/03/19 07:28:14;;;;;;;7.35;4.22;;;4.40;70.90;4.20;101069.00;;;;4883793;28;87523;-57
2022/03/19 07:30:41;;;;;;;7.38;4.07;;;4.50;71.00;4.20;101073.00;;;;4900055;28;88388;-56
2022/03/19 07:33:11;;;;;;;9.40;4.15;;;4.50;71.90;4.30;101076.00;;;;4877919;28;88248;-57
2022/03/19 07:35:39;;;;;;;7.80;3.97;;;4.60;71.10;4.40;101092.00;;;;4877856;28;87100;-58
2022/03/19 07:38:06;;;;;;;13.15;4.70;;;4.60;71.10;4.40;101084.00;;;;4891461;28;87768;-57
2022/03/19 07:43:21;;;;;;;9.55;4.18;;;4.80;71.30;4.50;101074.00;;;;4887509;28;86996;-56
2022/03/19 07:45:49;;;;;;;13.57;4.28;;;4.80;72.10;4.50;101080.00;;;;4895822;28;87464;-56
2022/03/19 07:48:15;;;;;;;7.63;3.78;;;4.90;71.40;4.60;101082.00;;;;4894461;28;88651;-55
2022/03/19 07:50:42;;;;;;;7.20;4.45;;;4.90;71.40;4.70;101077.00;;;;4898583;28;87322;-56
2022/03/19 07:53:09;;;;;;;9.88;4.70;;;5.00;71.40;4.80;101070.00;;;;4903730;28;86874;-57
2022/03/19 07:55:35;;;;;;;11.38;4.25;;;5.10;71.50;4.90;101075.00;;;;4902404;28;87104;-58
2022/03/19 07:58:03;;;;;;;9.13;4.10;;;5.30;71.20;4.90;101082.00;;;;4887745;28;90338;-55
2022/03/19 08:00:29;;;;;;;11.10;4.50;;;5.20;70.10;4.90;101079.00;;;;4895220;28;89296;-58
2022/03/19 08:02:56;;;;;;;11.52;3.97;;;5.30;70.10;5.00;101082.00;;;;4885852;28;87202;-58
2022/03/19 08:05:36;;;;;;;10.65;4.45;;;5.20;70.50;5.00;101080.00;;;;4887325;28;87191;-55
2022/03/19 08:08:36;;;;;;;12.77;5.00;;;5.30;70.00;5.00;101081.00;;;;4887871;28;90886;-57
2022/03/19 08:11:34;;;;;;;13.05;4.47;;;5.30;69.80;5.00;101076.00;;;;4881228;28;87515;-54
2022/03/19 08:14:33;;;;;;;8.48;4.05;;;5.30;69.80;5.00;101091.00;;;;4880872;28;87401;-57
2022/03/19 08:17:29;;;;;;;9.45;4.70;;;5.20;70.10;5.00;101095.00;;;;4899945;28;86787;-57
2022/03/19 08:20:21;;;;;;;9.10;4.30;;;5.20;70.20;5.00;101083.00;;;;4876067;28;89129;-55
2022/03/19 08:23:05;;;;;;;18.90;5.25;;;5.20;70.00;5.00;101096.00;;;;4900719;28;87729;-58
2022/03/19 08:25:49;;;;;;;13.82;5.18;;;5.30;70.10;5.10;101087.00;;;;4890417;28;88017;-57
2022/03/19 08:28:40;;;;;;;9.85;5.03;;;5.30;69.80;5.10;101082.00;;;;4901967;28;87181;-56
2022/03/19 08:31:23;;;;;;;12.65;5.22;;;5.40;69.90;5.20;101084.00;;;;4893434;28;87592;-56
2022/03/19 08:34:41;;;;;;;10.85;4.93;;;5.40;70.40;5.20;101085.00;;;;4883941;28;88931;-55
2022/03/19 08:40:49;;;;;;;8.77;5.32;;;5.40;70.30;5.30;101090.00;;;;4875977;28;87053;-57
2022/03/19 08:43:40;;;;;;;12.50;5.82;;;5.50;69.00;5.30;101087.00;;;;4892732;28;87516;-54
2022/03/19 08:46:25;;;;;;;10.75;5.10;;;5.60;69.50;5.30;101080.00;;;;4894004;28;87329;-58
2022/03/19 08:49:08;;;;;;;13.88;5.28;;;5.60;69.20;5.40;101084.00;;;;4877976;28;87120;-57
2022/03/19 08:51:48;;;;;;;13.52;5.30;;;5.70;69.20;5.50;101089.00;;;;4889494;28;87574;-55
2022/03/19 08:54:35;;;;;;;11.05;5.13;;;5.70;69.60;5.60;101092.00;;;;4866194;28;90586;-56
2022/03/19 08:57:41;;;;;;;14.30;5.53;;;5.80;69.00;5.50;101088.00;;;;4884255;28;89928;-58
2022/03/19 09:00:35;;;;;;;14.20;5.30;;;5.80;68.80;5.60;101095.00;;;;4893355;28;87218;-58
2022/03/19 09:03:32;;;;;;;10.20;5.88;;;5.80;68.60;5.70;101101.00;;;;4863790;28;87496;-55
2022/03/19 09:06:24;;;;;;;13.00;5.45;;;5.90;68.40;5.80;101096.00;;;;4897990;28;89448;-56
2022/03/19 09:08:56;;;;;;;17.52;5.70;;;6.00;68.00;5.90;101092.00;;;;4905217;28;87286;-57
2022/03/19 09:11:53;;;;;;;14.85;6.10;;;6.10;68.40;6.00;101099.00;;;;4885471;28;87194;-57
2022/03/19 09:14:30;;;;;;;10.45;4.70;;;6.20;67.90;6.00;101090.00;;;;4896802;28;86441;-56
2022/03/19 09:17:16;;;;;;;14.00;4.60;;;6.30;67.60;6.10;101089.00;;;;4900103;28;88192;-58
2022/03/19 09:19:54;;;;;;;11.60;4.88;;;6.40;66.70;6.20;101095.00;;;;4892639;28;88902;-57
2022/03/19 09:22:29;;;;;;;11.57;4.72;;;6.40;66.40;6.30;101105.00;;;;4881947;28;88032;-59
2022/03/19 09:25:05;;;;;;;13.65;4.68;;;6.50;65.70;6.20;101108.00;;;;4882501;28;87684;-57
2022/03/19 09:27:34;;;;;;;11.57;4.93;;;6.40;64.60;6.20;101100.00;;;;4883453;28;88699;-62
2022/03/19 09:30:00;;;;;;;9.80;4.63;;;6.50;64.70;6.20;101110.00;;;;4872516;28;88423;-62
2022/03/19 09:32:26;;;;;;;7.85;4.20;;;6.40;63.60;6.20;101114.00;;;;4897532;28;86978;-62
2022/03/19 09:34:53;;;;;;;10.77;4.72;;;6.40;63.70;6.20;101113.00;;;;4891107;28;88028;-63
2022/03/19 09:37:19;;;;;;;11.98;5.30;;;6.40;63.40;6.30;101109.00;;;;4885143;28;87324;-63
2022/03/19 09:39:46;;;;;;;15.57;5.35;;;6.50;66.20;6.30;101107.00;;;;4885599;28;88797;-63
2022/03/19 09:42:15;;;;;;;12.63;4.90;;;6.50;66.10;6.30;101106.00;;;;4886964;28;87007;-63
2022/03/19 09:44:48;;;;;;;14.80;5.55;;;6.50;64.90;6.40;101120.00;;;;4886255;28;87391;-63
2022/03/19 09:47:26;;;;;;;14.43;5.25;;;6.60;65.40;6.40;101107.00;;;;4895328;28;89215;-63
2022/03/19 09:49:59;;;;;;;11.30;5.03;;;6.60;65.50;6.40;101122.00;;;;4879313;28;90025;-62
2022/03/19 09:52:47;;;;;;;12.20;4.93;;;6.60;63.80;6.40;101111.00;;;;4889985;28;87078;-63
2022/03/19 09:55:20;;;;;;;13.57;4.47;;;6.60;64.60;6.40;101109.00;;;;4885483;28;87177;-62
2022/03/19 09:58:02;;;;;;;11.68;4.78;;;6.60;64.20;6.50;101116.00;;;;4887122;28;87979;-63
2022/03/19 10:00:32;;;;;;;11.05;4.57;;;6.60;64.80;6.50;101112.00;;;;4894635;28;89381;-63
2022/03/19 10:03:24;;;;;;;14.27;4.78;;;6.70;60.70;6.50;101113.00;;;;4892340;28;87652;-63
2022/03/19 10:09:22;;;;;;;11.68;4.18;;;6.70;63.30;6.60;101110.00;;;;4891590;28;87998;-62
2022/03/19 10:12:30;;;;;;;11.65;4.90;;;6.80;61.90;6.70;101105.00;;;;4862705;28;87263;-63
2022/03/19 10:15:12;;;;;;;8.52;4.53;;;6.80;63.00;6.70;101117.00;;;;4879007;28;88712;-63
2022/03/19 10:18:01;;;;;;;10.00;4.28;;;6.90;63.30;6.70;101116.00;;;;4880098;28;87242;-64
2022/03/19 10:20:36;;;;;;;9.00;4.13;;;6.90;63.10;6.70;101115.00;;;;4893697;28;89449;-62
2022/03/19 10:23:21;;;;;;;11.13;4.35;;;6.80;62.80;6.70;101122.00;;;;4894473;28;87704;-63
2022/03/19 10:26:17;;;;;;;10.50;4.18;;;6.80;62.80;6.70;101119.00;;;;4880658;28;88176;-63
2022/03/19 10:29:23;;;;;;;11.18;4.05;;;6.90;63.70;6.80;101137.00;;;;4885550;28;87415;-64
2022/03/19 10:32:01;;;;;;;12.73;4.43;;;6.90;62.50;6.80;101134.00;;;;4889451;28;87408;-64
2022/03/19 10:34:35;;;;;;;8.10;3.97;;;6.90;63.00;6.80;101127.00;;;;4882935;28;88469;-64
2022/03/19 10:37:51;;;;;;;7.70;4.03;;;7.00;61.50;6.70;101135.00;;;;4893347;28;87023;-64
2022/03/19 10:40:51;;;;;;;9.43;4.72;;;6.90;61.20;6.70;101132.00;;;;4874337;28;87221;-63
2022/03/19 10:43:49;;;;;;;12.45;3.90;;;6.90;61.90;6.80;101126.00;;;;4902865;28;90323;-63
2022/03/19 10:46:36;;;;;;;;;;;6.90;61.90;6.80;101127.00;;;;4901523;28;88263;-64
2022/03/19 10:49:32;;;;;;;12.07;4.15;;;7.00;62.10;6.80;101133.00;;;;4894210;28;87524;-63
2022/03/19 10:52:17;;;;;;;8.25;3.70;;;7.00;62.00;6.80;101124.00;;;;4893306;28;87321;-64
2022/03/19 10:55:11;;;;;;;14.07;3.85;;;7.00;62.10;6.90;101127.00;;;;4896925;28;88719;-63
2022/03/19 10:57:59;;;;;;;5.75;3.35;;;7.00;62.10;6.90;101121.00;;;;4880081;28;88837;-63
2022/03/19 11:01:02;;;;;;;7.97;3.85;;;7.10;62.10;6.90;101121.00;;;;4897258;28;87273;-63
2022/03/19 11:03:51;;;;;;;6.07;3.70;;;7.00;62.10;7.00;101129.00;;;;4875543;28;86404;-63
2022/03/19 11:07:00;;;;;;;10.88;3.78;;;7.20;62.40;7.10;101121.00;;;;4877953;28;87785;-64
2022/03/19 11:09:54;;;;;;;;;;;;;;;;;;;;;
2022/03/19 11:12:43;;;;;;;10.55;3.88;;;7.10;60.90;7.00;101106.00;;;;4889695;28;88067;-63
2022/03/19 11:15:20;;;;;;;9.27;3.63;;;7.10;62.10;7.10;101130.00;;;;4882639;28;87401;-63
2022/03/19 11:17:58;;;;;;;7.32;3.05;;;7.20;62.20;7.00;101116.00;;;;4894704;28;88077;-63
2022/03/19 11:20:41;;;;;;;10.27;3.53;;;7.10;60.90;7.00;101120.00;;;;4886809;28;87208;-62
2022/03/19 11:24:10;;;;;;;9.07;3.60;;;7.20;61.40;7.00;101118.00;;;;4883100;28;87177;-63
2022/03/19 11:27:03;;;;;;;10.98;3.97;;;7.10;61.30;7.10;101105.00;;;;4882212;28;87480;-63
2022/03/19 11:29:43;;;;;;;7.75;3.50;;;7.20;62.20;7.10;101103.00;;;;4887664;28;87855;-63
2022/03/19 11:32:39;;;;;;;10.37;3.60;;;7.30;61.50;7.20;101114.00;;;;4882378;28;88690;-63
2022/03/19 11:35:12;;;;;;;7.35;3.25;;;7.30;61.50;7.20;101103.00;;;;4866850;28;87153;-63
2022/03/19 11:38:04;;;;;;;7.43;3.72;;;7.30;59.60;7.20;101112.00;;;;4876327;28;87277;-63
2022/03/19 11:40:53;;;;;;;15.45;3.90;;;7.40;60.90;7.30;101108.00;;;;4886576;28;89062;-64
2022/03/19 11:43:33;;;;;;;8.07;4.18;;;7.40;61.70;7.30;101106.00;;;;4882940;28;89439;-63